sensor_id;sensor_type;location;lat;lon;timestamp;P1;durP1;ratioP1;P2;durP2;ratioP2
61036;SDS011;57313;47.040;15.498;2022-09-09T00:01:13;5.53;;;0.70;;
61036;SDS011;57313;47.040;15.498;2022-09-09T00:03:53;4.68;;;1.08;;
61036;SDS011;57313;47.040;15.498;2022-09-09T00:06:26;7.70;;;1.10;;
61036;SDS011;57313;47.040;15.498;2022-09-09T00:09:00;4.00;;;1.25;;
61036;SDS011;57313;47.040;15.498;2022-09-09T00:11:34;4.53;;;0.88;;
61036;SDS011;57313;47.040;15.498;2022-09-09T00:14:08;12.10;;;1.10;;
61036;SDS011;57313;47.040;15.498;2022-09-09T00:16:47;5.35;;;1.10;;
61036;SDS011;57313;47.040;15.498;2022-09-09T00:19:20;4.25;;;1.00;;
61036;SDS011;57313;47.040;15.498;2022-09-09T00:21:55;4.75;;;1.40;;
61036;SDS011;57313;47.040;15.498;2022-09-09T00:24:36;5.32;;;1.70;;
61036;SDS011;57313;47.040;15.498;2022-09-09T00:27:11;4.53;;;1.50;;
61036;SDS011;57313;47.040;15.498;2022-09-09T00:29:47;7.00;;;1.50;;
61036;SDS011;57313;47.040;15.498;2022-09-09T00:32:20;10.10;;;1.65;;
61036;SDS011;57313;47.040;15.498;2022-09-09T00:34:48;8.13;;;1.20;;
61036;SDS011;57313;47.040;15.498;2022-09-09T00:37:21;6.15;;;1.30;;
61036;SDS011;57313;47.040;15.498;2022-09-09T00:39:51;4.20;;;1.30;;
61036;SDS011;57313;47.040;15.498;2022-09-09T00:42:23;3.35;;;1.15;;
61036;SDS011;57313;47.040;15.498;2022-09-09T00:44:53;4.10;;;1.10;;
61036;SDS011;57313;47.040;15.498;2022-09-09T00:47:36;6.05;;;1.38;;
61036;SDS011;57313;47.040;15.498;2022-09-09T00:50:10;4.38;;;1.10;;
61036;SDS011;57313;47.040;15.498;2022-09-09T00:52:51;5.65;;;1.10;;
61036;SDS011;57313;47.040;15.498;2022-09-09T00:55:32;5.18;;;1.10;;
61036;SDS011;57313;47.040;15.498;2022-09-09T00:58:08;3.28;;;1.00;;
61036;SDS011;57313;47.040;15.498;2022-09-09T01:00:38;4.65;;;1.00;;
61036;SDS011;57313;47.040;15.498;2022-09-09T01:03:14;7.55;;;1.15;;
61036;SDS011;57313;47.040;15.498;2022-09-09T01:05:49;5.43;;;1.02;;
61036;SDS011;57313;47.040;15.498;2022-09-09T01:11:20;9.65;;;1.13;;
61036;SDS011;57313;47.040;15.498;2022-09-09T01:13:49;2.65;;;0.75;;
61036;SDS011;57313;47.040;15.498;2022-09-09T01:16:25;6.90;;;1.10;;
61036;SDS011;57313;47.040;15.498;2022-09-09T01:18:55;4.50;;;1.00;;
61036;SDS011;57313;47.040;15.498;2022-09-09T01:21:27;3.58;;;1.15;;
61036;SDS011;57313;47.040;15.498;2022-09-09T01:24:12;3.90;;;0.88;;
61036;SDS011;57313;47.040;15.498;2022-09-09T01:26:50;3.85;;;0.90;;
61036;SDS011;57313;47.040;15.498;2022-09-09T01:29:20;4.50;;;1.00;;
61036;SDS011;57313;47.040;15.498;2022-09-09T01:31:52;7.38;;;1.10;;
61036;SDS011;57313;47.040;15.498;2022-09-09T01:34:22;3.97;;;0.90;;
61036;SDS011;57313;47.040;15.498;2022-09-09T01:36:53;3.78;;;1.00;;
61036;SDS011;57313;47.040;15.498;2022-09-09T01:39:24;4.82;;;1.10;;
61036;SDS011;57313;47.040;15.498;2022-09-09T01:41:54;3.42;;;0.82;;
61036;SDS011;57313;47.040;15.498;2022-09-09T01:44:23;7.93;;;1.20;;
61036;SDS011;57313;47.040;15.498;2022-09-09T01:46:51;5.55;;;1.10;;
61036;SDS011;57313;47.040;15.498;2022-09-09T01:49:18;3.45;;;1.02;;
61036;SDS011;57313;47.040;15.498;2022-09-09T01:51:46;3.22;;;1.05;;
61036;SDS011;57313;47.040;15.498;2022-09-09T01:54:18;4.47;;;0.98;;
61036;SDS011;57313;47.040;15.498;2022-09-09T01:56:50;6.85;;;0.90;;
61036;SDS011;57313;47.040;15.498;2022-09-09T01:59:33;2.90;;;0.90;;
61036;SDS011;57313;47.040;15.498;2022-09-09T02:02:11;3.40;;;0.90;;
61036;SDS011;57313;47.040;15.498;2022-09-09T02:04:43;2.63;;;0.80;;
61036;SDS011;57313;47.040;15.498;2022-09-09T02:07:17;5.57;;;1.10;;
61036;SDS011;57313;47.040;15.498;2022-09-09T02:10:00;8.77;;;1.05;;
61036;SDS011;57313;47.040;15.498;2022-09-09T02:12:38;3.15;;;1.00;;
61036;SDS011;57313;47.040;15.498;2022-09-09T02:15:11;3.75;;;1.10;;
61036;SDS011;57313;47.040;15.498;2022-09-09T02:17:49;6.10;;;1.15;;
61036;SDS011;57313;47.040;15.498;2022-09-09T02:20:19;4.68;;;0.88;;
61036;SDS011;57313;47.040;15.498;2022-09-09T02:22:49;4.05;;;1.00;;
61036;SDS011;57313;47.040;15.498;2022-09-09T02:25:19;4.25;;;0.90;;
61036;SDS011;57313;47.040;15.498;2022-09-09T02:27:50;6.95;;;1.00;;
61036;SDS011;57313;47.040;15.498;2022-09-09T02:30:18;4.43;;;1.13;;
61036;SDS011;57313;47.040;15.498;2022-09-09T02:32:47;5.22;;;1.10;;
61036;SDS011;57313;47.040;15.498;2022-09-09T02:35:18;5.00;;;1.05;;
61036;SDS011;57313;47.040;15.498;2022-09-09T02:37:50;3.00;;;0.98;;
61036;SDS011;57313;47.040;15.498;2022-09-09T02:40:20;4.80;;;1.00;;
61036;SDS011;57313;47.040;15.498;2022-09-09T02:42:48;3.55;;;0.98;;
61036;SDS011;57313;47.040;15.498;2022-09-09T02:45:19;6.70;;;1.20;;
61036;SDS011;57313;47.040;15.498;2022-09-09T02:47:50;8.57;;;1.20;;
61036;SDS011;57313;47.040;15.498;2022-09-09T02:50:29;3.20;;;0.90;;
61036;SDS011;57313;47.040;15.498;2022-09-09T02:53:04;5.80;;;1.10;;
61036;SDS011;57313;47.040;15.498;2022-09-09T02:55:39;3.30;;;1.00;;
61036;SDS011;57313;47.040;15.498;2022-09-09T03:00:41;6.47;;;1.13;;
61036;SDS011;57313;47.040;15.498;2022-09-09T03:03:10;8.60;;;1.13;;
61036;SDS011;57313;47.040;15.498;2022-09-09T03:05:38;3.90;;;1.00;;
61036;SDS011;57313;47.040;15.498;2022-09-09T03:08:05;2.92;;;0.90;;
61036;SDS011;57313;47.040;15.498;2022-09-09T03:10:33;3.38;;;1.00;;
61036;SDS011;57313;47.040;15.498;2022-09-09T03:13:01;6.03;;;1.08;;
61036;SDS011;57313;47.040;15.498;2022-09-09T03:15:29;4.70;;;0.98;;
61036;SDS011;57313;47.040;15.498;2022-09-09T03:17:57;8.10;;;1.02;;
61036;SDS011;57313;47.040;15.498;2022-09-09T03:20:26;3.38;;;1.10;;
61036;SDS011;57313;47.040;15.498;2022-09-09T03:22:54;5.20;;;1.08;;
61036;SDS011;57313;47.040;15.498;2022-09-09T03:25:23;5.65;;;1.10;;
61036;SDS011;57313;47.040;15.498;2022-09-09T03:27:51;7.93;;;1.10;;
61036;SDS011;57313;47.040;15.498;2022-09-09T03:30:19;4.95;;;1.00;;
61036;SDS011;57313;47.040;15.498;2022-09-09T03:32:48;12.48;;;1.10;;
61036;SDS011;57313;47.040;15.498;2022-09-09T03:35:16;6.35;;;1.05;;
61036;SDS011;57313;47.040;15.498;2022-09-09T03:37:44;2.53;;;0.90;;
61036;SDS011;57313;47.040;15.498;2022-09-09T03:40:12;3.72;;;1.10;;
61036;SDS011;57313;47.040;15.498;2022-09-09T03:42:40;5.30;;;1.00;;
61036;SDS011;57313;47.040;15.498;2022-09-09T03:45:08;2.17;;;0.80;;
61036;SDS011;57313;47.040;15.498;2022-09-09T03:47:36;3.38;;;1.30;;
61036;SDS011;57313;47.040;15.498;2022-09-09T03:50:06;5.20;;;1.10;;
61036;SDS011;57313;47.040;15.498;2022-09-09T03:52:35;4.75;;;1.05;;
61036;SDS011;57313;47.040;15.498;2022-09-09T03:55:03;4.55;;;1.23;;
61036;SDS011;57313;47.040;15.498;2022-09-09T03:57:31;4.75;;;1.20;;
61036;SDS011;57313;47.040;15.498;2022-09-09T03:59:59;5.85;;;1.02;;
61036;SDS011;57313;47.040;15.498;2022-09-09T04:02:26;2.55;;;0.90;;
61036;SDS011;57313;47.040;15.498;2022-09-09T04:04:54;3.38;;;0.90;;
61036;SDS011;57313;47.040;15.498;2022-09-09T04:07:23;4.15;;;1.20;;
61036;SDS011;57313;47.040;15.498;2022-09-09T04:09:50;3.33;;;1.13;;
61036;SDS011;57313;47.040;15.498;2022-09-09T04:12:18;5.30;;;1.20;;
61036;SDS011;57313;47.040;15.498;2022-09-09T04:14:45;5.38;;;1.40;;
61036;SDS011;57313;47.040;15.498;2022-09-09T04:17:12;8.48;;;1.30;;
61036;SDS011;57313;47.040;15.498;2022-09-09T04:19:39;6.53;;;1.60;;
61036;SDS011;57313;47.040;15.498;2022-09-09T04:22:06;3.92;;;1.30;;
61036;SDS011;57313;47.040;15.498;2022-09-09T04:24:36;4.15;;;1.30;;
61036;SDS011;57313;47.040;15.498;2022-09-09T04:27:03;7.88;;;1.30;;
61036;SDS011;57313;47.040;15.498;2022-09-09T04:29:31;5.80;;;1.40;;
61036;SDS011;57313;47.040;15.498;2022-09-09T04:31:58;4.38;;;1.10;;
61036;SDS011;57313;47.040;15.498;2022-09-09T04:34:25;9.65;;;1.40;;
61036;SDS011;57313;47.040;15.498;2022-09-09T04:36:53;6.22;;;1.10;;
61036;SDS011;57313;47.040;15.498;2022-09-09T04:39:20;7.50;;;1.30;;
61036;SDS011;57313;47.040;15.498;2022-09-09T04:41:49;3.45;;;1.20;;
61036;SDS011;57313;47.040;15.498;2022-09-09T04:44:16;8.27;;;1.35;;
61036;SDS011;57313;47.040;15.498;2022-09-09T04:46:44;6.43;;;1.55;;
61036;SDS011;57313;47.040;15.498;2022-09-09T04:49:11;4.65;;;1.13;;
61036;SDS011;57313;47.040;15.498;2022-09-09T04:51:41;8.38;;;1.88;;
61036;SDS011;57313;47.040;15.498;2022-09-09T04:54:08;4.13;;;1.10;;
61036;SDS011;57313;47.040;15.498;2022-09-09T04:56:35;6.72;;;1.40;;
61036;SDS011;57313;47.040;15.498;2022-09-09T04:59:04;4.22;;;1.17;;
61036;SDS011;57313;47.040;15.498;2022-09-09T05:01:32;4.88;;;1.20;;
61036;SDS011;57313;47.040;15.498;2022-09-09T05:04:00;4.63;;;1.25;;
61036;SDS011;57313;47.040;15.498;2022-09-09T05:06:28;5.15;;;1.35;;
61036;SDS011;57313;47.040;15.498;2022-09-09T05:08:55;8.68;;;1.50;;
61036;SDS011;57313;47.040;15.498;2022-09-09T05:11:22;5.00;;;1.40;;
61036;SDS011;57313;47.040;15.498;2022-09-09T05:13:51;10.73;;;1.50;;
61036;SDS011;57313;47.040;15.498;2022-09-09T05:16:21;5.63;;;1.52;;
61036;SDS011;57313;47.040;15.498;2022-09-09T05:18:49;5.57;;;1.40;;
61036;SDS011;57313;47.040;15.498;2022-09-09T05:21:18;6.43;;;1.55;;
61036;SDS011;57313;47.040;15.498;2022-09-09T05:23:48;8.68;;;1.90;;
61036;SDS011;57313;47.040;15.498;2022-09-09T05:26:17;5.40;;;1.58;;
61036;SDS011;57313;47.040;15.498;2022-09-09T05:28:47;4.32;;;1.45;;
61036;SDS011;57313;47.040;15.498;2022-09-09T05:31:15;8.00;;;1.88;;
61036;SDS011;57313;47.040;15.498;2022-09-09T05:33:46;6.65;;;1.63;;
61036;SDS011;57313;47.040;15.498;2022-09-09T05:36:15;4.63;;;1.20;;
61036;SDS011;57313;47.040;15.498;2022-09-09T05:38:44;7.43;;;1.70;;
61036;SDS011;57313;47.040;15.498;2022-09-09T05:41:12;4.78;;;1.25;;
61036;SDS011;57313;47.040;15.498;2022-09-09T05:43:40;7.30;;;1.58;;
61036;SDS011;57313;47.040;15.498;2022-09-09T05:46:09;7.10;;;1.65;;
61036;SDS011;57313;47.040;15.498;2022-09-09T05:48:38;5.65;;;1.42;;
61036;SDS011;57313;47.040;15.498;2022-09-09T05:51:10;8.02;;;1.58;;
61036;SDS011;57313;47.040;15.498;2022-09-09T05:53:38;7.22;;;1.50;;
61036;SDS011;57313;47.040;15.498;2022-09-09T05:56:06;7.00;;;1.55;;
61036;SDS011;57313;47.040;15.498;2022-09-09T05:58:35;9.02;;;1.60;;
61036;SDS011;57313;47.040;15.498;2022-09-09T06:01:05;4.88;;;1.38;;
61036;SDS011;57313;47.040;15.498;2022-09-09T06:03:34;4.28;;;1.17;;
61036;SDS011;57313;47.040;15.498;2022-09-09T06:06:02;7.38;;;1.50;;
61036;SDS011;57313;47.040;15.498;2022-09-09T06:08:33;5.95;;;1.13;;
61036;SDS011;57313;47.040;15.498;2022-09-09T06:11:02;7.80;;;1.40;;
61036;SDS011;57313;47.040;15.498;2022-09-09T06:13:30;15.57;;;1.60;;
61036;SDS011;57313;47.040;15.498;2022-09-09T06:15:58;6.75;;;1.67;;
61036;SDS011;57313;47.040;15.498;2022-09-09T06:18:26;4.47;;;1.50;;
61036;SDS011;57313;47.040;15.498;2022-09-09T06:20:54;6.25;;;1.58;;
61036;SDS011;57313;47.040;15.498;2022-09-09T06:23:24;5.80;;;1.25;;
61036;SDS011;57313;47.040;15.498;2022-09-09T06:25:59;11.55;;;1.60;;
61036;SDS011;57313;47.040;15.498;2022-09-09T06:28:28;6.40;;;1.48;;
61036;SDS011;57313;47.040;15.498;2022-09-09T06:30:58;7.13;;;1.60;;
61036;SDS011;57313;47.040;15.498;2022-09-09T06:33:26;3.78;;;1.30;;
61036;SDS011;57313;47.040;15.498;2022-09-09T06:35:57;7.25;;;1.58;;
61036;SDS011;57313;47.040;15.498;2022-09-09T06:38:24;5.55;;;1.65;;
61036;SDS011;57313;47.040;15.498;2022-09-09T06:40:55;4.50;;;1.30;;
61036;SDS011;57313;47.040;15.498;2022-09-09T06:43:24;6.78;;;1.33;;
61036;SDS011;57313;47.040;15.498;2022-09-09T06:45:55;8.95;;;1.70;;
61036;SDS011;57313;47.040;15.498;2022-09-09T06:48:24;4.88;;;1.52;;
61036;SDS011;57313;47.040;15.498;2022-09-09T06:50:51;4.60;;;1.40;;
61036;SDS011;57313;47.040;15.498;2022-09-09T06:53:26;7.20;;;1.50;;
61036;SDS011;57313;47.040;15.498;2022-09-09T06:55:58;6.57;;;1.63;;
61036;SDS011;57313;47.040;15.498;2022-09-09T06:58:26;6.22;;;1.50;;
61036;SDS011;57313;47.040;15.498;2022-09-09T07:01:00;8.55;;;2.20;;
61036;SDS011;57313;47.040;15.498;2022-09-09T07:03:29;7.25;;;2.17;;
61036;SDS011;57313;47.040;15.498;2022-09-09T07:05:56;6.30;;;1.92;;
61036;SDS011;57313;47.040;15.498;2022-09-09T07:08:24;6.32;;;1.88;;
61036;SDS011;57313;47.040;15.498;2022-09-09T07:10:53;6.82;;;2.17;;
61036;SDS011;57313;47.040;15.498;2022-09-09T07:13:25;8.43;;;3.15;;
61036;SDS011;57313;47.040;15.498;2022-09-09T07:15:52;8.10;;;2.70;;
61036;SDS011;57313;47.040;15.498;2022-09-09T07:18:20;13.30;;;3.42;;
61036;SDS011;57313;47.040;15.498;2022-09-09T07:20:57;11.32;;;3.15;;
61036;SDS011;57313;47.040;15.498;2022-09-09T07:23:24;9.27;;;3.60;;
61036;SDS011;57313;47.040;15.498;2022-09-09T07:25:52;10.73;;;3.25;;
61036;SDS011;57313;47.040;15.498;2022-09-09T07:28:19;11.02;;;3.38;;
61036;SDS011;57313;47.040;15.498;2022-09-09T07:30:54;10.77;;;3.47;;
61036;SDS011;57313;47.040;15.498;2022-09-09T07:33:22;9.38;;;3.10;;
61036;SDS011;57313;47.040;15.498;2022-09-09T07:35:50;9.73;;;3.55;;
61036;SDS011;57313;47.040;15.498;2022-09-09T07:38:19;8.77;;;3.17;;
61036;SDS011;57313;47.040;15.498;2022-09-09T07:40:46;11.43;;;3.30;;
61036;SDS011;57313;47.040;15.498;2022-09-09T07:43:14;11.77;;;3.53;;
61036;SDS011;57313;47.040;15.498;2022-09-09T07:45:42;14.43;;;3.78;;
61036;SDS011;57313;47.040;15.498;2022-09-09T07:48:12;9.95;;;3.20;;
61036;SDS011;57313;47.040;15.498;2022-09-09T07:50:40;15.63;;;4.13;;
61036;SDS011;57313;47.040;15.498;2022-09-09T07:53:07;11.35;;;3.70;;
61036;SDS011;57313;47.040;15.498;2022-09-09T07:55:35;8.80;;;3.63;;
61036;SDS011;57313;47.040;15.498;2022-09-09T07:58:02;9.30;;;3.55;;
61036;SDS011;57313;47.040;15.498;2022-09-09T08:00:29;11.75;;;3.58;;
61036;SDS011;57313;47.040;15.498;2022-09-09T08:02:57;14.65;;;4.07;;
61036;SDS011;57313;47.040;15.498;2022-09-09T08:05:27;17.75;;;3.47;;
61036;SDS011;57313;47.040;15.498;2022-09-09T08:07:55;10.90;;;3.72;;
61036;SDS011;57313;47.040;15.498;2022-09-09T08:10:22;10.50;;;3.30;;
61036;SDS011;57313;47.040;15.498;2022-09-09T08:12:50;12.70;;;3.63;;
61036;SDS011;57313;47.040;15.498;2022-09-09T08:15:37;19.75;;;4.00;;
61036;SDS011;57313;47.040;15.498;2022-09-09T08:18:05;9.68;;;3.28;;
61036;SDS011;57313;47.040;15.498;2022-09-09T08:20:34;9.43;;;3.85;;
61036;SDS011;57313;47.040;15.498;2022-09-09T08:23:03;11.20;;;3.65;;
61036;SDS011;57313;47.040;15.498;2022-09-09T08:25:30;14.77;;;3.75;;
61036;SDS011;57313;47.040;15.498;2022-09-09T08:27:57;11.98;;;3.70;;
61036;SDS011;57313;47.040;15.498;2022-09-09T08:30:25;12.23;;;3.90;;
61036;SDS011;57313;47.040;15.498;2022-09-09T08:32:52;10.70;;;3.60;;
61036;SDS011;57313;47.040;15.498;2022-09-09T08:35:20;11.73;;;3.92;;
61036;SDS011;57313;47.040;15.498;2022-09-09T08:37:49;15.80;;;3.35;;
61036;SDS011;57313;47.040;15.498;2022-09-09T08:40:22;10.18;;;3.70;;
61036;SDS011;57313;47.040;15.498;2022-09-09T08:42:55;12.68;;;4.00;;
61036;SDS011;57313;47.040;15.498;2022-09-09T08:45:30;7.28;;;2.97;;
61036;SDS011;57313;47.040;15.498;2022-09-09T08:48:06;9.15;;;3.50;;
61036;SDS011;57313;47.040;15.498;2022-09-09T08:50:40;14.18;;;3.63;;
61036;SDS011;57313;47.040;15.498;2022-09-09T08:53:12;11.60;;;3.30;;
61036;SDS011;57313;47.040;15.498;2022-09-09T08:55:45;8.95;;;3.05;;
61036;SDS011;57313;47.040;15.498;2022-09-09T08:58:17;8.77;;;3.20;;
61036;SDS011;57313;47.040;15.498;2022-09-09T09:03:47;11.35;;;3.17;;
61036;SDS011;57313;47.040;15.498;2022-09-09T09:06:26;9.02;;;3.60;;
61036;SDS011;57313;47.040;15.498;2022-09-09T09:09:08;10.95;;;3.80;;
61036;SDS011;57313;47.040;15.498;2022-09-09T09:11:43;11.23;;;3.42;;
61036;SDS011;57313;47.040;15.498;2022-09-09T09:14:15;9.00;;;3.05;;
61036;SDS011;57313;47.040;15.498;2022-09-09T09:16:48;13.77;;;3.50;;
61036;SDS011;57313;47.040;15.498;2022-09-09T09:19:19;10.20;;;3.90;;
61036;SDS011;57313;47.040;15.498;2022-09-09T09:21:48;10.68;;;3.28;;
61036;SDS011;57313;47.040;15.498;2022-09-09T09:24:27;9.45;;;3.17;;
61036;SDS011;57313;47.040;15.498;2022-09-09T09:27:07;10.10;;;3.40;;
61036;SDS011;57313;47.040;15.498;2022-09-09T09:29:40;11.60;;;3.20;;
61036;SDS011;57313;47.040;15.498;2022-09-09T09:32:30;9.63;;;2.80;;
61036;SDS011;57313;47.040;15.498;2022-09-09T09:35:02;10.45;;;3.20;;
61036;SDS011;57313;47.040;15.498;2022-09-09T09:37:40;14.65;;;3.20;;
61036;SDS011;57313;47.040;15.498;2022-09-09T09:40:30;10.93;;;2.70;;
61036;SDS011;57313;47.040;15.498;2022-09-09T09:42:58;6.53;;;2.30;;
61036;SDS011;57313;47.040;15.498;2022-09-09T09:45:28;11.40;;;2.75;;
61036;SDS011;57313;47.040;15.498;2022-09-09T09:47:59;6.25;;;2.25;;
61036;SDS011;57313;47.040;15.498;2022-09-09T09:50:33;7.20;;;2.85;;
61036;SDS011;57313;47.040;15.498;2022-09-09T09:53:02;13.57;;;2.95;;
61036;SDS011;57313;47.040;15.498;2022-09-09T09:55:33;8.38;;;2.10;;
61036;SDS011;57313;47.040;15.498;2022-09-09T09:58:03;8.75;;;2.45;;
61036;SDS011;57313;47.040;15.498;2022-09-09T10:00:32;7.57;;;2.10;;
61036;SDS011;57313;47.040;15.498;2022-09-09T10:03:00;7.18;;;2.15;;
61036;SDS011;57313;47.040;15.498;2022-09-09T10:05:29;4.95;;;1.77;;
61036;SDS011;57313;47.040;15.498;2022-09-09T10:08:03;5.72;;;1.77;;
61036;SDS011;57313;47.040;15.498;2022-09-09T10:10:38;8.93;;;2.50;;
61036;SDS011;57313;47.040;15.498;2022-09-09T10:13:18;6.05;;;1.95;;
61036;SDS011;57313;47.040;15.498;2022-09-09T10:15:57;6.22;;;2.20;;
61036;SDS011;57313;47.040;15.498;2022-09-09T10:18:38;9.43;;;2.38;;
61036;SDS011;57313;47.040;15.498;2022-09-09T10:21:16;7.30;;;2.30;;
61036;SDS011;57313;47.040;15.498;2022-09-09T10:24:16;9.07;;;2.38;;
61036;SDS011;57313;47.040;15.498;2022-09-09T10:26:56;7.50;;;2.05;;
61036;SDS011;57313;47.040;15.498;2022-09-09T10:29:37;6.65;;;2.15;;
61036;SDS011;57313;47.040;15.498;2022-09-09T10:32:26;5.88;;;2.30;;
61036;SDS011;57313;47.040;15.498;2022-09-09T10:35:04;5.45;;;1.77;;
61036;SDS011;57313;47.040;15.498;2022-09-09T10:37:41;10.10;;;2.40;;
61036;SDS011;57313;47.040;15.498;2022-09-09T10:40:23;8.57;;;1.90;;
61036;SDS011;57313;47.040;15.498;2022-09-09T10:43:01;6.90;;;2.15;;
61036;SDS011;57313;47.040;15.498;2022-09-09T10:45:41;8.00;;;2.10;;
61036;SDS011;57313;47.040;15.498;2022-09-09T10:48:19;5.65;;;1.90;;
61036;SDS011;57313;47.040;15.498;2022-09-09T10:51:01;7.38;;;2.20;;
61036;SDS011;57313;47.040;15.498;2022-09-09T10:53:44;10.18;;;3.30;;
61036;SDS011;57313;47.040;15.498;2022-09-09T10:56:20;10.75;;;2.63;;
61036;SDS011;57313;47.040;15.498;2022-09-09T10:58:50;7.55;;;1.88;;
61036;SDS011;57313;47.040;15.498;2022-09-09T11:01:24;6.35;;;1.63;;
61036;SDS011;57313;47.040;15.498;2022-09-09T11:04:00;9.13;;;3.70;;
61036;SDS011;57313;47.040;15.498;2022-09-09T11:06:34;6.80;;;1.92;;
61036;SDS011;57313;47.040;15.498;2022-09-09T11:09:09;6.07;;;1.80;;
61036;SDS011;57313;47.040;15.498;2022-09-09T11:11:45;6.95;;;1.65;;
61036;SDS011;57313;47.040;15.498;2022-09-09T11:14:26;5.28;;;1.58;;
61036;SDS011;57313;47.040;15.498;2022-09-09T11:17:04;6.07;;;1.70;;
61036;SDS011;57313;47.040;15.498;2022-09-09T11:19:38;6.07;;;1.60;;
61036;SDS011;57313;47.040;15.498;2022-09-09T11:22:08;5.90;;;1.60;;
61036;SDS011;57313;47.040;15.498;2022-09-09T11:24:47;6.20;;;1.55;;
61036;SDS011;57313;47.040;15.498;2022-09-09T11:27:19;4.65;;;1.52;;
61036;SDS011;57313;47.040;15.498;2022-09-09T11:33:24;5.22;;;1.70;;
61036;SDS011;57313;47.040;15.498;2022-09-09T11:36:09;5.88;;;1.80;;
61036;SDS011;57313;47.040;15.498;2022-09-09T11:38:51;8.68;;;1.58;;
61036;SDS011;57313;47.040;15.498;2022-09-09T11:41:20;5.80;;;1.70;;
61036;SDS011;57313;47.040;15.498;2022-09-09T11:43:48;4.75;;;1.60;;
61036;SDS011;57313;47.040;15.498;2022-09-09T11:46:19;6.93;;;1.35;;
61036;SDS011;57313;47.040;15.498;2022-09-09T11:48:58;4.82;;;1.30;;
61036;SDS011;57313;47.040;15.498;2022-09-09T11:51:27;5.20;;;1.40;;
61036;SDS011;57313;47.040;15.498;2022-09-09T11:53:57;4.97;;;1.60;;
61036;SDS011;57313;47.040;15.498;2022-09-09T11:56:29;6.03;;;1.65;;
61036;SDS011;57313;47.040;15.498;2022-09-09T11:58:59;7.60;;;1.35;;
61036;SDS011;57313;47.040;15.498;2022-09-09T12:01:33;7.82;;;1.50;;
61036;SDS011;57313;47.040;15.498;2022-09-09T12:06:56;3.75;;;1.17;;
61036;SDS011;57313;47.040;15.498;2022-09-09T12:09:30;5.57;;;1.30;;
61036;SDS011;57313;47.040;15.498;2022-09-09T12:12:27;4.07;;;1.40;;
61036;SDS011;57313;47.040;15.498;2022-09-09T12:14:59;5.25;;;1.33;;
61036;SDS011;57313;47.040;15.498;2022-09-09T12:17:32;8.45;;;1.55;;
61036;SDS011;57313;47.040;15.498;2022-09-09T12:20:12;6.97;;;1.48;;
61036;SDS011;57313;47.040;15.498;2022-09-09T12:22:45;5.85;;;1.60;;
61036;SDS011;57313;47.040;15.498;2022-09-09T12:25:26;8.60;;;1.63;;
61036;SDS011;57313;47.040;15.498;2022-09-09T12:28:03;8.38;;;1.60;;
61036;SDS011;57313;47.040;15.498;2022-09-09T12:30:39;7.15;;;1.80;;
61036;SDS011;57313;47.040;15.498;2022-09-09T12:33:16;5.28;;;1.70;;
61036;SDS011;57313;47.040;15.498;2022-09-09T12:35:45;4.75;;;1.52;;
61036;SDS011;57313;47.040;15.498;2022-09-09T12:38:19;4.13;;;1.45;;
61036;SDS011;57313;47.040;15.498;2022-09-09T12:40:55;11.65;;;1.75;;
61036;SDS011;57313;47.040;15.498;2022-09-09T12:43:24;8.13;;;1.67;;
61036;SDS011;57313;47.040;15.498;2022-09-09T12:45:54;7.97;;;1.60;;
61036;SDS011;57313;47.040;15.498;2022-09-09T12:48:27;4.70;;;1.40;;
61036;SDS011;57313;47.040;15.498;2022-09-09T12:50:58;4.53;;;1.30;;
61036;SDS011;57313;47.040;15.498;2022-09-09T12:53:26;4.35;;;1.40;;
61036;SDS011;57313;47.040;15.498;2022-09-09T12:55:57;5.22;;;1.60;;
61036;SDS011;57313;47.040;15.498;2022-09-09T12:58:26;5.65;;;1.50;;
61036;SDS011;57313;47.040;15.498;2022-09-09T13:00:56;5.45;;;1.40;;
61036;SDS011;57313;47.040;15.498;2022-09-09T13:03:24;4.93;;;1.45;;
61036;SDS011;57313;47.040;15.498;2022-09-09T13:05:57;6.15;;;1.70;;
61036;SDS011;57313;47.040;15.498;2022-09-09T13:08:26;6.57;;;1.42;;
61036;SDS011;57313;47.040;15.498;2022-09-09T13:10:54;4.50;;;1.20;;
61036;SDS011;57313;47.040;15.498;2022-09-09T13:15:59;6.70;;;1.40;;
61036;SDS011;57313;47.040;15.498;2022-09-09T13:18:29;5.45;;;1.52;;
61036;SDS011;57313;47.040;15.498;2022-09-09T13:21:03;5.43;;;1.45;;
61036;SDS011;57313;47.040;15.498;2022-09-09T13:23:31;4.07;;;1.20;;
61036;SDS011;57313;47.040;15.498;2022-09-09T13:26:02;6.10;;;1.30;;
61036;SDS011;57313;47.040;15.498;2022-09-09T13:28:31;4.45;;;1.20;;
61036;SDS011;57313;47.040;15.498;2022-09-09T13:31:01;4.78;;;1.30;;
61036;SDS011;57313;47.040;15.498;2022-09-09T13:33:31;4.72;;;1.35;;
61036;SDS011;57313;47.040;15.498;2022-09-09T13:36:01;6.40;;;1.52;;
61036;SDS011;57313;47.040;15.498;2022-09-09T13:38:37;4.25;;;1.25;;
61036;SDS011;57313;47.040;15.498;2022-09-09T13:41:08;3.53;;;1.20;;
61036;SDS011;57313;47.040;15.498;2022-09-09T13:43:38;6.07;;;1.58;;
61036;SDS011;57313;47.040;15.498;2022-09-09T13:46:23;3.30;;;1.20;;
61036;SDS011;57313;47.040;15.498;2022-09-09T13:48:56;3.92;;;1.25;;
61036;SDS011;57313;47.040;15.498;2022-09-09T13:51:29;4.20;;;1.30;;
61036;SDS011;57313;47.040;15.498;2022-09-09T13:54:00;4.10;;;1.30;;
61036;SDS011;57313;47.040;15.498;2022-09-09T13:56:28;4.55;;;1.40;;
61036;SDS011;57313;47.040;15.498;2022-09-09T13:58:56;6.18;;;1.40;;
61036;SDS011;57313;47.040;15.498;2022-09-09T14:01:24;4.40;;;1.25;;
61036;SDS011;57313;47.040;15.498;2022-09-09T14:03:55;6.85;;;1.70;;
61036;SDS011;57313;47.040;15.498;2022-09-09T14:06:23;5.93;;;1.50;;
61036;SDS011;57313;47.040;15.498;2022-09-09T14:08:52;4.57;;;1.20;;
61036;SDS011;57313;47.040;15.498;2022-09-09T14:11:20;5.95;;;1.50;;
61036;SDS011;57313;47.040;15.498;2022-09-09T14:13:49;4.18;;;1.25;;
61036;SDS011;57313;47.040;15.498;2022-09-09T14:16:16;7.03;;;1.40;;
61036;SDS011;57313;47.040;15.498;2022-09-09T14:18:44;6.03;;;1.40;;
61036;SDS011;57313;47.040;15.498;2022-09-09T14:21:13;5.47;;;1.50;;
61036;SDS011;57313;47.040;15.498;2022-09-09T14:23:42;5.97;;;1.58;;
61036;SDS011;57313;47.040;15.498;2022-09-09T14:26:13;7.22;;;1.60;;
61036;SDS011;57313;47.040;15.498;2022-09-09T14:28:41;7.38;;;1.92;;
61036;SDS011;57313;47.040;15.498;2022-09-09T14:31:21;5.28;;;1.60;;
61036;SDS011;57313;47.040;15.498;2022-09-09T14:33:49;7.50;;;2.03;;
61036;SDS011;57313;47.040;15.498;2022-09-09T14:36:16;7.40;;;2.00;;
61036;SDS011;57313;47.040;15.498;2022-09-09T14:38:44;5.40;;;1.65;;
61036;SDS011;57313;47.040;15.498;2022-09-09T14:41:15;7.13;;;1.33;;
61036;SDS011;57313;47.040;15.498;2022-09-09T14:43:44;8.07;;;1.50;;
61036;SDS011;57313;47.040;15.498;2022-09-09T14:46:12;3.92;;;1.25;;
61036;SDS011;57313;47.040;15.498;2022-09-09T14:48:41;4.78;;;1.38;;
61036;SDS011;57313;47.040;15.498;2022-09-09T14:51:10;5.95;;;1.90;;
61036;SDS011;57313;47.040;15.498;2022-09-09T14:53:39;7.05;;;1.95;;
61036;SDS011;57313;47.040;15.498;2022-09-09T14:56:07;6.93;;;2.13;;
61036;SDS011;57313;47.040;15.498;2022-09-09T14:58:37;5.68;;;1.77;;
61036;SDS011;57313;47.040;15.498;2022-09-09T15:01:05;8.20;;;1.63;;
61036;SDS011;57313;47.040;15.498;2022-09-09T15:03:34;6.13;;;1.70;;
61036;SDS011;57313;47.040;15.498;2022-09-09T15:06:05;9.77;;;1.80;;
61036;SDS011;57313;47.040;15.498;2022-09-09T15:08:33;6.68;;;1.92;;
61036;SDS011;57313;47.040;15.498;2022-09-09T15:11:07;5.45;;;1.83;;
61036;SDS011;57313;47.040;15.498;2022-09-09T15:13:36;5.90;;;1.73;;
61036;SDS011;57313;47.040;15.498;2022-09-09T15:16:06;5.85;;;1.88;;